sensor_id;sensor_type;location;lat;lon;timestamp;P1;durP1;ratioP1;P2;durP2;ratioP2
71610;SDS011;59459;51.172;6.682;2023-02-15T00:00:51;40.03;;;15.95;;
71610;SDS011;59459;51.172;6.682;2023-02-15T00:03:19;40.30;;;16.80;;
71610;SDS011;59459;51.172;6.682;2023-02-15T00:05:45;42.67;;;17.47;;
71610;SDS011;59459;51.172;6.682;2023-02-15T00:08:10;39.47;;;16.17;;
71610;SDS011;59459;51.172;6.682;2023-02-15T00:10:35;41.70;;;17.30;;
71610;SDS011;59459;51.172;6.682;2023-02-15T00:13:00;41.00;;;16.87;;
71610;SDS011;59459;51.172;6.682;2023-02-15T00:15:25;42.50;;;16.47;;
71610;SDS011;59459;51.172;6.682;2023-02-15T00:17:51;41.07;;;18.00;;
71610;SDS011;59459;51.172;6.682;2023-02-15T00:20:16;38.90;;;16.57;;
71610;SDS011;59459;51.172;6.682;2023-02-15T00:22:41;42.57;;;17.43;;
71610;SDS011;59459;51.172;6.682;2023-02-15T00:25:06;41.03;;;15.80;;
71610;SDS011;59459;51.172;6.682;2023-02-15T00:27:32;42.90;;;17.77;;
71610;SDS011;59459;51.172;6.682;2023-02-15T00:29:58;43.70;;;16.92;;
71610;SDS011;59459;51.172;6.682;2023-02-15T00:32:23;37.47;;;14.60;;
71610;SDS011;59459;51.172;6.682;2023-02-15T00:34:48;40.43;;;16.03;;
71610;SDS011;59459;51.172;6.682;2023-02-15T00:37:13;41.87;;;15.90;;
71610;SDS011;59459;51.172;6.682;2023-02-15T00:39:38;41.20;;;16.83;;
71610;SDS011;59459;51.172;6.682;2023-02-15T00:42:04;41.20;;;16.00;;
71610;SDS011;59459;51.172;6.682;2023-02-15T00:44:29;36.50;;;15.07;;
71610;SDS011;59459;51.172;6.682;2023-02-15T00:46:54;42.53;;;16.87;;
71610;SDS011;59459;51.172;6.682;2023-02-15T00:49:19;43.13;;;17.17;;
71610;SDS011;59459;51.172;6.682;2023-02-15T00:51:45;39.70;;;16.00;;
71610;SDS011;59459;51.172;6.682;2023-02-15T00:54:10;40.93;;;15.90;;
71610;SDS011;59459;51.172;6.682;2023-02-15T00:56:38;39.93;;;17.03;;
71610;SDS011;59459;51.172;6.682;2023-02-15T00:59:03;42.47;;;16.17;;
71610;SDS011;59459;51.172;6.682;2023-02-15T01:01:29;47.77;;;18.07;;
71610;SDS011;59459;51.172;6.682;2023-02-15T01:03:54;46.00;;;17.87;;
71610;SDS011;59459;51.172;6.682;2023-02-15T01:06:19;40.80;;;15.50;;
71610;SDS011;59459;51.172;6.682;2023-02-15T01:08:45;50.97;;;18.00;;
71610;SDS011;59459;51.172;6.682;2023-02-15T01:11:12;41.45;;;17.60;;
71610;SDS011;59459;51.172;6.682;2023-02-15T01:13:37;45.38;;;17.42;;
71610;SDS011;59459;51.172;6.682;2023-02-15T01:16:03;43.93;;;18.17;;
71610;SDS011;59459;51.172;6.682;2023-02-15T01:18:28;45.93;;;17.87;;
71610;SDS011;59459;51.172;6.682;2023-02-15T01:20:54;42.58;;;18.58;;
71610;SDS011;59459;51.172;6.682;2023-02-15T01:23:20;42.23;;;16.67;;
71610;SDS011;59459;51.172;6.682;2023-02-15T01:25:45;42.40;;;17.50;;
71610;SDS011;59459;51.172;6.682;2023-02-15T01:28:10;48.20;;;17.80;;
71610;SDS011;59459;51.172;6.682;2023-02-15T01:30:35;49.50;;;17.83;;
71610;SDS011;59459;51.172;6.682;2023-02-15T01:33:01;45.10;;;17.87;;
71610;SDS011;59459;51.172;6.682;2023-02-15T01:35:26;46.73;;;18.83;;
71610;SDS011;59459;51.172;6.682;2023-02-15T01:37:52;45.47;;;17.63;;
71610;SDS011;59459;51.172;6.682;2023-02-15T01:40:17;45.57;;;17.33;;
71610;SDS011;59459;51.172;6.682;2023-02-15T01:42:43;44.30;;;16.25;;
71610;SDS011;59459;51.172;6.682;2023-02-15T01:45:17;43.77;;;16.73;;
71610;SDS011;59459;51.172;6.682;2023-02-15T01:48:25;39.60;;;15.75;;
71610;SDS011;59459;51.172;6.682;2023-02-15T01:50:34;44.83;;;16.83;;
71610;SDS011;59459;51.172;6.682;2023-02-15T01:55:31;47.30;;;17.20;;
71610;SDS011;59459;51.172;6.682;2023-02-15T01:57:57;46.47;;;18.92;;
71610;SDS011;59459;51.172;6.682;2023-02-15T02:00:23;46.90;;;18.40;;
71610;SDS011;59459;51.172;6.682;2023-02-15T02:02:49;42.65;;;17.92;;
71610;SDS011;59459;51.172;6.682;2023-02-15T02:05:15;43.70;;;18.37;;
71610;SDS011;59459;51.172;6.682;2023-02-15T02:07:41;42.10;;;17.30;;
71610;SDS011;59459;51.172;6.682;2023-02-15T02:10:08;45.72;;;17.65;;
71610;SDS011;59459;51.172;6.682;2023-02-15T02:12:34;45.00;;;16.65;;
71610;SDS011;59459;51.172;6.682;2023-02-15T02:14:59;47.72;;;19.20;;
71610;SDS011;59459;51.172;6.682;2023-02-15T02:17:50;50.23;;;19.70;;
71610;SDS011;59459;51.172;6.682;2023-02-15T02:20:26;44.25;;;17.77;;
71610;SDS011;59459;51.172;6.682;2023-02-15T02:46:00;47.20;;;19.40;;
71610;SDS011;59459;51.172;6.682;2023-02-15T02:48:28;44.43;;;17.93;;
71610;SDS011;59459;51.172;6.682;2023-02-15T02:50:55;45.20;;;16.35;;
71610;SDS011;59459;51.172;6.682;2023-02-15T02:53:20;44.97;;;17.07;;
71610;SDS011;59459;51.172;6.682;2023-02-15T02:55:47;45.87;;;17.27;;
71610;SDS011;59459;51.172;6.682;2023-02-15T02:58:24;41.15;;;16.48;;
71610;SDS011;59459;51.172;6.682;2023-02-15T03:00:57;45.28;;;17.02;;
71610;SDS011;59459;51.172;6.682;2023-02-15T03:03:32;47.40;;;17.38;;
71610;SDS011;59459;51.172;6.682;2023-02-15T03:06:00;42.63;;;16.93;;
71610;SDS011;59459;51.172;6.682;2023-02-15T03:08:28;43.08;;;18.92;;
71610;SDS011;59459;51.172;6.682;2023-02-15T03:10:55;47.97;;;18.30;;
71610;SDS011;59459;51.172;6.682;2023-02-15T03:13:21;47.30;;;17.58;;
71610;SDS011;59459;51.172;6.682;2023-02-15T03:15:47;47.80;;;18.43;;
71610;SDS011;59459;51.172;6.682;2023-02-15T03:18:37;50.63;;;18.58;;
71610;SDS011;59459;51.172;6.682;2023-02-15T03:21:03;47.10;;;17.33;;
71610;SDS011;59459;51.172;6.682;2023-02-15T03:23:30;47.60;;;17.58;;
71610;SDS011;59459;51.172;6.682;2023-02-15T03:25:59;46.23;;;16.17;;
71610;SDS011;59459;51.172;6.682;2023-02-15T03:28:30;45.27;;;16.97;;
71610;SDS011;59459;51.172;6.682;2023-02-15T03:30:58;41.42;;;16.60;;
71610;SDS011;59459;51.172;6.682;2023-02-15T03:33:25;45.05;;;17.30;;
71610;SDS011;59459;51.172;6.682;2023-02-15T03:35:56;43.55;;;17.30;;
71610;SDS011;59459;51.172;6.682;2023-02-15T03:38:25;43.03;;;16.35;;
71610;SDS011;59459;51.172;6.682;2023-02-15T03:40:54;42.57;;;15.77;;
71610;SDS011;59459;51.172;6.682;2023-02-15T03:48:55;42.40;;;17.20;;
71610;SDS011;59459;51.172;6.682;2023-02-15T03:51:22;40.88;;;15.60;;
71610;SDS011;59459;51.172;6.682;2023-02-15T03:54:20;40.83;;;16.13;;
71610;SDS011;59459;51.172;6.682;2023-02-15T03:57:07;45.15;;;16.25;;
71610;SDS011;59459;51.172;6.682;2023-02-15T03:59:51;43.60;;;16.83;;
71610;SDS011;59459;51.172;6.682;2023-02-15T04:02:38;40.10;;;14.88;;
71610;SDS011;59459;51.172;6.682;2023-02-15T04:05:04;45.50;;;15.73;;
71610;SDS011;59459;51.172;6.682;2023-02-15T04:07:30;46.00;;;17.30;;
71610;SDS011;59459;51.172;6.682;2023-02-15T04:09:55;42.43;;;15.83;;
71610;SDS011;59459;51.172;6.682;2023-02-15T04:12:39;46.10;;;15.45;;
71610;SDS011;59459;51.172;6.682;2023-02-15T04:15:04;38.13;;;14.77;;
71610;SDS011;59459;51.172;6.682;2023-02-15T04:17:48;41.43;;;14.83;;
71610;SDS011;59459;51.172;6.682;2023-02-15T04:20:13;43.60;;;16.00;;
71610;SDS011;59459;51.172;6.682;2023-02-15T04:22:57;40.92;;;16.33;;
71610;SDS011;59459;51.172;6.682;2023-02-15T04:25:41;43.55;;;15.70;;
71610;SDS011;59459;51.172;6.682;2023-02-15T04:28:06;44.37;;;17.30;;
71610;SDS011;59459;51.172;6.682;2023-02-15T04:30:32;43.00;;;16.00;;
71610;SDS011;59459;51.172;6.682;2023-02-15T04:32:58;46.83;;;17.87;;
71610;SDS011;59459;51.172;6.682;2023-02-15T04:35:23;46.80;;;16.33;;
71610;SDS011;59459;51.172;6.682;2023-02-15T04:37:48;47.93;;;16.77;;
71610;SDS011;59459;51.172;6.682;2023-02-15T04:40:14;45.53;;;16.27;;
71610;SDS011;59459;51.172;6.682;2023-02-15T04:42:39;48.08;;;16.75;;
71610;SDS011;59459;51.172;6.682;2023-02-15T04:45:05;44.17;;;16.77;;
71610;SDS011;59459;51.172;6.682;2023-02-15T04:47:30;41.33;;;15.13;;
71610;SDS011;59459;51.172;6.682;2023-02-15T04:49:55;45.07;;;16.93;;
71610;SDS011;59459;51.172;6.682;2023-02-15T04:52:21;39.87;;;16.40;;
71610;SDS011;59459;51.172;6.682;2023-02-15T04:54:46;40.07;;;15.33;;
71610;SDS011;59459;51.172;6.682;2023-02-15T04:57:12;45.50;;;15.87;;
71610;SDS011;59459;51.172;6.682;2023-02-15T04:59:37;45.38;;;17.85;;
71610;SDS011;59459;51.172;6.682;2023-02-15T05:02:03;43.37;;;15.23;;
71610;SDS011;59459;51.172;6.682;2023-02-15T05:04:28;43.30;;;15.43;;
71610;SDS011;59459;51.172;6.682;2023-02-15T05:06:53;41.07;;;15.50;;
71610;SDS011;59459;51.172;6.682;2023-02-15T05:09:18;40.67;;;15.83;;
71610;SDS011;59459;51.172;6.682;2023-02-15T05:11:44;42.27;;;16.53;;
71610;SDS011;59459;51.172;6.682;2023-02-15T05:14:09;48.43;;;16.20;;
71610;SDS011;59459;51.172;6.682;2023-02-15T05:16:34;45.77;;;17.00;;
71610;SDS011;59459;51.172;6.682;2023-02-15T05:18:59;40.67;;;14.97;;
71610;SDS011;59459;51.172;6.682;2023-02-15T05:21:25;41.63;;;15.57;;
71610;SDS011;59459;51.172;6.682;2023-02-15T05:23:50;41.30;;;15.37;;
71610;SDS011;59459;51.172;6.682;2023-02-15T05:26:17;46.13;;;16.30;;
71610;SDS011;59459;51.172;6.682;2023-02-15T05:29:01;40.97;;;15.90;;
71610;SDS011;59459;51.172;6.682;2023-02-15T05:31:26;45.80;;;16.27;;
71610;SDS011;59459;51.172;6.682;2023-02-15T05:33:52;43.47;;;15.17;;
71610;SDS011;59459;51.172;6.682;2023-02-15T05:36:17;38.33;;;15.13;;
71610;SDS011;59459;51.172;6.682;2023-02-15T05:38:42;39.97;;;15.33;;
71610;SDS011;59459;51.172;6.682;2023-02-15T05:41:08;44.23;;;16.83;;
71610;SDS011;59459;51.172;6.682;2023-02-15T05:43:34;42.33;;;15.85;;
71610;SDS011;59459;51.172;6.682;2023-02-15T05:45:59;46.30;;;15.93;;
71610;SDS011;59459;51.172;6.682;2023-02-15T05:48:25;41.97;;;16.42;;
71610;SDS011;59459;51.172;6.682;2023-02-15T05:51:00;42.00;;;16.20;;
71610;SDS011;59459;51.172;6.682;2023-02-15T05:53:26;45.60;;;15.93;;
71610;SDS011;59459;51.172;6.682;2023-02-15T05:55:52;44.47;;;15.77;;
71610;SDS011;59459;51.172;6.682;2023-02-15T05:58:18;44.75;;;16.02;;
71610;SDS011;59459;51.172;6.682;2023-02-15T06:00:44;45.50;;;16.87;;
71610;SDS011;59459;51.172;6.682;2023-02-15T06:03:09;42.30;;;15.37;;
71610;SDS011;59459;51.172;6.682;2023-02-15T06:05:34;40.70;;;15.90;;
71610;SDS011;59459;51.172;6.682;2023-02-15T06:07:59;43.27;;;15.60;;
71610;SDS011;59459;51.172;6.682;2023-02-15T06:10:25;42.67;;;15.73;;
71610;SDS011;59459;51.172;6.682;2023-02-15T06:12:50;41.47;;;15.53;;
71610;SDS011;59459;51.172;6.682;2023-02-15T06:15:15;44.90;;;15.87;;
71610;SDS011;59459;51.172;6.682;2023-02-15T06:17:41;41.00;;;15.93;;
71610;SDS011;59459;51.172;6.682;2023-02-15T06:20:07;37.55;;;14.82;;
71610;SDS011;59459;51.172;6.682;2023-02-15T06:22:33;37.87;;;14.57;;
71610;SDS011;59459;51.172;6.682;2023-02-15T06:24:58;35.25;;;14.50;;
71610;SDS011;59459;51.172;6.682;2023-02-15T06:27:23;36.80;;;14.10;;
71610;SDS011;59459;51.172;6.682;2023-02-15T06:29:49;36.10;;;14.37;;
71610;SDS011;59459;51.172;6.682;2023-02-15T06:32:14;41.20;;;16.00;;
71610;SDS011;59459;51.172;6.682;2023-02-15T06:34:39;41.43;;;14.53;;
71610;SDS011;59459;51.172;6.682;2023-02-15T06:37:05;42.67;;;14.20;;
71610;SDS011;59459;51.172;6.682;2023-02-15T06:39:30;39.57;;;13.90;;
71610;SDS011;59459;51.172;6.682;2023-02-15T06:41:55;37.80;;;13.37;;
71610;SDS011;59459;51.172;6.682;2023-02-15T06:44:20;30.00;;;13.20;;
71610;SDS011;59459;51.172;6.682;2023-02-15T06:46:46;41.60;;;15.43;;
71610;SDS011;59459;51.172;6.682;2023-02-15T06:49:11;42.07;;;14.10;;
71610;SDS011;59459;51.172;6.682;2023-02-15T06:51:36;37.60;;;14.30;;
71610;SDS011;59459;51.172;6.682;2023-02-15T06:54:01;36.33;;;14.93;;
71610;SDS011;59459;51.172;6.682;2023-02-15T06:56:27;45.25;;;14.18;;
71610;SDS011;59459;51.172;6.682;2023-02-15T06:58:52;37.93;;;13.17;;
71610;SDS011;59459;51.172;6.682;2023-02-15T07:01:18;38.30;;;14.47;;
71610;SDS011;59459;51.172;6.682;2023-02-15T07:03:43;42.13;;;15.93;;
71610;SDS011;59459;51.172;6.682;2023-02-15T07:06:09;41.13;;;15.50;;
71610;SDS011;59459;51.172;6.682;2023-02-15T07:08:36;35.38;;;14.02;;
71610;SDS011;59459;51.172;6.682;2023-02-15T07:11:01;40.27;;;14.70;;
71610;SDS011;59459;51.172;6.682;2023-02-15T07:13:47;38.50;;;13.25;;
71610;SDS011;59459;51.172;6.682;2023-02-15T07:16:12;37.13;;;14.80;;
71610;SDS011;59459;51.172;6.682;2023-02-15T07:18:40;40.73;;;15.10;;
71610;SDS011;59459;51.172;6.682;2023-02-15T07:21:06;37.10;;;14.83;;
71610;SDS011;59459;51.172;6.682;2023-02-15T07:23:34;36.45;;;13.85;;
71610;SDS011;59459;51.172;6.682;2023-02-15T07:25:59;35.95;;;14.25;;
71610;SDS011;59459;51.172;6.682;2023-02-15T07:28:24;38.10;;;13.97;;
71610;SDS011;59459;51.172;6.682;2023-02-15T07:30:50;37.13;;;13.43;;
71610;SDS011;59459;51.172;6.682;2023-02-15T07:33:15;38.88;;;12.60;;
71610;SDS011;59459;51.172;6.682;2023-02-15T07:35:53;38.17;;;14.07;;
71610;SDS011;59459;51.172;6.682;2023-02-15T07:38:19;37.10;;;14.87;;
71610;SDS011;59459;51.172;6.682;2023-02-15T07:40:44;33.07;;;13.57;;
71610;SDS011;59459;51.172;6.682;2023-02-15T07:43:10;35.90;;;12.90;;
71610;SDS011;59459;51.172;6.682;2023-02-15T07:45:35;32.50;;;13.37;;
71610;SDS011;59459;51.172;6.682;2023-02-15T07:48:01;36.33;;;13.40;;
71610;SDS011;59459;51.172;6.682;2023-02-15T07:50:26;36.20;;;13.73;;
71610;SDS011;59459;51.172;6.682;2023-02-15T07:52:51;36.23;;;13.20;;
71610;SDS011;59459;51.172;6.682;2023-02-15T07:55:16;35.20;;;14.13;;
71610;SDS011;59459;51.172;6.682;2023-02-15T07:57:43;32.80;;;13.07;;
71610;SDS011;59459;51.172;6.682;2023-02-15T08:00:10;35.80;;;14.30;;
71610;SDS011;59459;51.172;6.682;2023-02-15T08:02:36;31.80;;;13.10;;
71610;SDS011;59459;51.172;6.682;2023-02-15T08:05:02;31.60;;;12.70;;
71610;SDS011;59459;51.172;6.682;2023-02-15T08:07:27;35.80;;;14.03;;
71610;SDS011;59459;51.172;6.682;2023-02-15T08:09:52;36.67;;;14.57;;
71610;SDS011;59459;51.172;6.682;2023-02-15T08:12:18;35.03;;;13.48;;
71610;SDS011;59459;51.172;6.682;2023-02-15T08:14:44;29.80;;;12.37;;
71610;SDS011;59459;51.172;6.682;2023-02-15T08:17:09;27.27;;;11.53;;
71610;SDS011;59459;51.172;6.682;2023-02-15T08:19:34;33.87;;;12.87;;
71610;SDS011;59459;51.172;6.682;2023-02-15T08:22:04;27.17;;;11.35;;
71610;SDS011;59459;51.172;6.682;2023-02-15T08:24:31;30.37;;;12.53;;
71610;SDS011;59459;51.172;6.682;2023-02-15T08:26:56;33.88;;;12.07;;
71610;SDS011;59459;51.172;6.682;2023-02-15T08:29:23;33.27;;;11.87;;
71610;SDS011;59459;51.172;6.682;2023-02-15T08:31:49;32.05;;;11.65;;
71610;SDS011;59459;51.172;6.682;2023-02-15T08:34:16;34.40;;;12.45;;
71610;SDS011;59459;51.172;6.682;2023-02-15T08:36:43;31.98;;;12.60;;
71610;SDS011;59459;51.172;6.682;2023-02-15T08:39:10;33.00;;;12.55;;
71610;SDS011;59459;51.172;6.682;2023-02-15T08:41:36;31.67;;;12.50;;
71610;SDS011;59459;51.172;6.682;2023-02-15T08:44:06;32.10;;;12.55;;
71610;SDS011;59459;51.172;6.682;2023-02-15T08:46:32;31.25;;;12.40;;
71610;SDS011;59459;51.172;6.682;2023-02-15T08:48:58;29.05;;;11.48;;
71610;SDS011;59459;51.172;6.682;2023-02-15T08:51:24;28.50;;;13.17;;
71610;SDS011;59459;51.172;6.682;2023-02-15T08:53:51;31.85;;;12.57;;
71610;SDS011;59459;51.172;6.682;2023-02-15T08:56:20;31.10;;;13.13;;
71610;SDS011;59459;51.172;6.682;2023-02-15T08:58:45;29.67;;;12.47;;
71610;SDS011;59459;51.172;6.682;2023-02-15T09:01:11;32.60;;;12.20;;
71610;SDS011;59459;51.172;6.682;2023-02-15T09:03:37;29.35;;;12.05;;
71610;SDS011;59459;51.172;6.682;2023-02-15T09:06:03;27.23;;;9.75;;
71610;SDS011;59459;51.172;6.682;2023-02-15T09:08:28;28.47;;;12.47;;
71610;SDS011;59459;51.172;6.682;2023-02-15T09:10:54;29.13;;;11.40;;
71610;SDS011;59459;51.172;6.682;2023-02-15T09:13:19;28.20;;;12.63;;
71610;SDS011;59459;51.172;6.682;2023-02-15T09:15:45;27.63;;;11.97;;
71610;SDS011;59459;51.172;6.682;2023-02-15T09:18:10;25.23;;;11.97;;
71610;SDS011;59459;51.172;6.682;2023-02-15T09:20:37;29.23;;;12.00;;
71610;SDS011;59459;51.172;6.682;2023-02-15T09:23:02;29.63;;;11.57;;
71610;SDS011;59459;51.172;6.682;2023-02-15T09:25:27;27.70;;;11.57;;
71610;SDS011;59459;51.172;6.682;2023-02-15T09:27:53;27.63;;;11.20;;
71610;SDS011;59459;51.172;6.682;2023-02-15T09:30:18;27.97;;;11.77;;
71610;SDS011;59459;51.172;6.682;2023-02-15T09:32:43;29.50;;;10.80;;
71610;SDS011;59459;51.172;6.682;2023-02-15T09:35:11;26.70;;;11.85;;
71610;SDS011;59459;51.172;6.682;2023-02-15T09:37:36;30.53;;;10.30;;
71610;SDS011;59459;51.172;6.682;2023-02-15T09:40:01;32.10;;;11.37;;
71610;SDS011;59459;51.172;6.682;2023-02-15T09:47:24;22.50;;;10.15;;
71610;SDS011;59459;51.172;6.682;2023-02-15T09:57:45;29.25;;;11.43;;
71610;SDS011;59459;51.172;6.682;2023-02-15T10:00:20;24.45;;;11.80;;
71610;SDS011;59459;51.172;6.682;2023-02-15T10:06:33;21.83;;;9.40;;
71610;SDS011;59459;51.172;6.682;2023-02-15T10:16:42;23.83;;;10.82;;
71610;SDS011;59459;51.172;6.682;2023-02-15T10:24:12;27.25;;;10.30;;
71610;SDS011;59459;51.172;6.682;2023-02-15T10:26:43;24.95;;;9.88;;
71610;SDS011;59459;51.172;6.682;2023-02-15T10:29:13;22.65;;;10.27;;
71610;SDS011;59459;51.172;6.682;2023-02-15T10:34:18;22.07;;;10.93;;
71610;SDS011;59459;51.172;6.682;2023-02-15T10:36:58;22.83;;;10.20;;
71610;SDS011;59459;51.172;6.682;2023-02-15T10:39:29;22.42;;;10.80;;
71610;SDS011;59459;51.172;6.682;2023-02-15T10:42:06;23.17;;;11.50;;
71610;SDS011;59459;51.172;6.682;2023-02-15T10:47:07;21.87;;;10.60;;
71610;SDS011;59459;51.172;6.682;2023-02-15T10:52:09;19.85;;;11.18;;
71610;SDS011;59459;51.172;6.682;2023-02-15T10:54:44;19.52;;;10.63;;
71610;SDS011;59459;51.172;6.682;2023-02-15T10:59:51;19.30;;;11.27;;
71610;SDS011;59459;51.172;6.682;2023-02-15T11:02:31;20.98;;;11.30;;
71610;SDS011;59459;51.172;6.682;2023-02-15T11:05:05;19.30;;;11.30;;
71610;SDS011;59459;51.172;6.682;2023-02-15T11:07:35;18.02;;;11.43;;
71610;SDS011;59459;51.172;6.682;2023-02-15T11:10:46;19.17;;;11.55;;
71610;SDS011;59459;51.172;6.682;2023-02-15T11:12:50;21.07;;;11.40;;
71610;SDS011;59459;51.172;6.682;2023-02-15T11:17:48;18.48;;;10.65;;
71610;SDS011;59459;51.172;6.682;2023-02-15T11:20:27;19.40;;;12.70;;
71610;SDS011;59459;51.172;6.682;2023-02-15T11:22:53;19.55;;;11.60;;
71610;SDS011;59459;51.172;6.682;2023-02-15T11:25:24;19.70;;;12.88;;
71610;SDS011;59459;51.172;6.682;2023-02-15T11:27:50;20.65;;;12.55;;
71610;SDS011;59459;51.172;6.682;2023-02-15T11:30:22;18.63;;;11.70;;
71610;SDS011;59459;51.172;6.682;2023-02-15T11:32:48;18.80;;;11.80;;
71610;SDS011;59459;51.172;6.682;2023-02-15T11:35:27;19.73;;;13.20;;
71610;SDS011;59459;51.172;6.682;2023-02-15T11:40:52;21.33;;;12.40;;
71610;SDS011;59459;51.172;6.682;2023-02-15T11:46:01;21.60;;;12.48;;
71610;SDS011;59459;51.172;6.682;2023-02-15T11:48:27;19.80;;;13.50;;
71610;SDS011;59459;51.172;6.682;2023-02-15T11:50:54;22.42;;;12.15;;
71610;SDS011;59459;51.172;6.682;2023-02-15T11:53:20;18.70;;;12.37;;
71610;SDS011;59459;51.172;6.682;2023-02-15T11:55:47;19.33;;;12.20;;
71610;SDS011;59459;51.172;6.682;2023-02-15T12:00:42;19.75;;;12.70;;
71610;SDS011;59459;51.172;6.682;2023-02-15T12:03:16;19.65;;;12.90;;
71610;SDS011;59459;51.172;6.682;2023-02-15T12:05:43;20.45;;;13.15;;
71610;SDS011;59459;51.172;6.682;2023-02-15T12:08:12;19.50;;;11.32;;
71610;SDS011;59459;51.172;6.682;2023-02-15T12:10:44;22.03;;;12.03;;
71610;SDS011;59459;51.172;6.682;2023-02-15T12:15:38;17.63;;;12.23;;
71610;SDS011;59459;51.172;6.682;2023-02-15T12:18:15;19.15;;;12.73;;
71610;SDS011;59459;51.172;6.682;2023-02-15T12:20:41;19.10;;;12.35;;
71610;SDS011;59459;51.172;6.682;2023-02-15T12:23:11;21.20;;;13.70;;
71610;SDS011;59459;51.172;6.682;2023-02-15T12:28:03;19.83;;;12.60;;
71610;SDS011;59459;51.172;6.682;2023-02-15T12:30:30;21.75;;;12.10;;
71610;SDS011;59459;51.172;6.682;2023-02-15T12:32:57;20.35;;;13.68;;
71610;SDS011;59459;51.172;6.682;2023-02-15T12:38:03;20.73;;;14.23;;
71610;SDS011;59459;51.172;6.682;2023-02-15T12:40:30;20.15;;;13.07;;
71610;SDS011;59459;51.172;6.682;2023-02-15T12:42:56;19.35;;;12.70;;
71610;SDS011;59459;51.172;6.682;2023-02-15T12:47:53;19.30;;;14.07;;
71610;SDS011;59459;51.172;6.682;2023-02-15T12:50:32;19.13;;;12.83;;
71610;SDS011;59459;51.172;6.682;2023-02-15T12:53:08;18.35;;;12.93;;
71610;SDS011;59459;51.172;6.682;2023-02-15T12:55:33;19.90;;;13.10;;
71610;SDS011;59459;51.172;6.682;2023-02-15T12:58:32;18.52;;;13.63;;
71610;SDS011;59459;51.172;6.682;2023-02-15T13:03:30;17.52;;;13.02;;
71610;SDS011;59459;51.172;6.682;2023-02-15T13:05:56;19.60;;;12.87;;
71610;SDS011;59459;51.172;6.682;2023-02-15T13:08:31;18.35;;;13.07;;
71610;SDS011;59459;51.172;6.682;2023-02-15T13:13:28;18.40;;;12.40;;
71610;SDS011;59459;51.172;6.682;2023-02-15T13:16:15;19.85;;;12.57;;
71610;SDS011;59459;51.172;6.682;2023-02-15T13:18:43;17.85;;;12.02;;
71610;SDS011;59459;51.172;6.682;2023-02-15T13:21:10;19.10;;;12.50;;
71610;SDS011;59459;51.172;6.682;2023-02-15T13:23:36;18.63;;;12.60;;
71610;SDS011;59459;51.172;6.682;2023-02-15T13:26:03;19.70;;;12.90;;
71610;SDS011;59459;51.172;6.682;2023-02-15T13:28:37;19.85;;;12.77;;
71610;SDS011;59459;51.172;6.682;2023-02-15T13:31:04;17.65;;;12.35;;
71610;SDS011;59459;51.172;6.682;2023-02-15T13:33:36;17.33;;;12.53;;
71610;SDS011;59459;51.172;6.682;2023-02-15T13:36:05;17.95;;;12.52;;
71610;SDS011;59459;51.172;6.682;2023-02-15T13:41:00;17.03;;;11.43;;
71610;SDS011;59459;51.172;6.682;2023-02-15T14:01:10;18.63;;;12.48;;
71610;SDS011;59459;51.172;6.682;2023-02-15T14:08:39;18.60;;;12.23;;
71610;SDS011;59459;51.172;6.682;2023-02-15T14:11:15;18.10;;;11.70;;
71610;SDS011;59459;51.172;6.682;2023-02-15T14:16:41;20.03;;;12.20;;
71610;SDS011;59459;51.172;6.682;2023-02-15T14:24:23;20.60;;;11.88;;
71610;SDS011;59459;51.172;6.682;2023-02-15T14:26:52;19.83;;;11.75;;
71610;SDS011;59459;51.172;6.682;2023-02-15T14:29:23;20.63;;;12.07;;
71610;SDS011;59459;51.172;6.682;2023-02-15T14:31:53;18.80;;;11.52;;
71610;SDS011;59459;51.172;6.682;2023-02-15T14:37:04;20.25;;;12.00;;
71610;SDS011;59459;51.172;6.682;2023-02-15T14:39:48;21.37;;;11.80;;
71610;SDS011;59459;51.172;6.682;2023-02-15T14:45:24;21.77;;;12.10;;
71610;SDS011;59459;51.172;6.682;2023-02-15T14:47:57;21.73;;;12.00;;
71610;SDS011;59459;51.172;6.682;2023-02-15T14:50:36;19.07;;;11.40;;
71610;SDS011;59459;51.172;6.682;2023-02-15T14:55:46;21.08;;;11.50;;
71610;SDS011;59459;51.172;6.682;2023-02-15T14:58:11;20.67;;;10.90;;
71610;SDS011;59459;51.172;6.682;2023-02-15T15:00:38;19.08;;;10.07;;
71610;SDS011;59459;51.172;6.682;2023-02-15T15:03:11;22.50;;;11.15;;
71610;SDS011;59459;51.172;6.682;2023-02-15T15:05:46;20.67;;;11.23;;
71610;SDS011;59459;51.172;6.682;2023-02-15T15:08:21;20.48;;;11.35;;
71610;SDS011;59459;51.172;6.682;2023-02-15T15:10:47;19.75;;;10.80;;
71610;SDS011;59459;51.172;6.682;2023-02-15T15:13:51;21.50;;;10.30;;
71610;SDS011;59459;51.172;6.682;2023-02-15T15:18:48;21.70;;;10.98;;
71610;SDS011;59459;51.172;6.682;2023-02-15T15:23:57;20.90;;;9.45;;
71610;SDS011;59459;51.172;6.682;2023-02-15T15:26:24;22.00;;;9.77;;
71610;SDS011;59459;51.172;6.682;2023-02-15T15:41:42;18.40;;;9.63;;
71610;SDS011;59459;51.172;6.682;2023-02-15T15:49:36;21.23;;;10.60;;
71610;SDS011;59459;51.172;6.682;2023-02-15T15:52:02;24.33;;;11.35;;
71610;SDS011;59459;51.172;6.682;2023-02-15T15:54:33;22.17;;;10.17;;
71610;SDS011;59459;51.172;6.682;2023-02-15T15:57:00;22.73;;;10.83;;
71610;SDS011;59459;51.172;6.682;2023-02-15T15:59:31;24.77;;;11.25;;
71610;SDS011;59459;51.172;6.682;2023-02-15T16:01:56;25.38;;;10.57;;
71610;SDS011;59459;51.172;6.682;2023-02-15T16:04:29;20.30;;;10.65;;
71610;SDS011;59459;51.172;6.682;2023-02-15T16:06:55;24.83;;;11.50;;
71610;SDS011;59459;51.172;6.682;2023-02-15T16:09:22;21.47;;;10.37;;
71610;SDS011;59459;51.172;6.682;2023-02-15T16:11:57;23.02;;;10.57;;
71610;SDS011;59459;51.172;6.682;2023-02-15T16:14:38;22.85;;;10.25;;
71610;SDS011;59459;51.172;6.682;2023-02-15T16:17:04;20.42;;;9.73;;
71610;SDS011;59459;51.172;6.682;2023-02-15T16:19:32;24.60;;;11.65;;
71610;SDS011;59459;51.172;6.682;2023-02-15T16:21:58;23.47;;;10.47;;
71610;SDS011;59459;51.172;6.682;2023-02-15T16:24:34;20.48;;;9.73;;
71610;SDS011;59459;51.172;6.682;2023-02-15T16:29:31;23.00;;;10.37;;
71610;SDS011;59459;51.172;6.682;2023-02-15T16:31:58;23.42;;;10.65;;
71610;SDS011;59459;51.172;6.682;2023-02-15T16:34:23;28.45;;;13.00;;
71610;SDS011;59459;51.172;6.682;2023-02-15T16:36:48;34.50;;;15.37;;
71610;SDS011;59459;51.172;6.682;2023-02-15T16:39:17;24.83;;;12.23;;
71610;SDS011;59459;51.172;6.682;2023-02-15T16:41:43;29.23;;;13.30;;
71610;SDS011;59459;51.172;6.682;2023-02-15T16:44:20;27.37;;;12.73;;
71610;SDS011;59459;51.172;6.682;2023-02-15T16:46:46;25.98;;;12.27;;
71610;SDS011;59459;51.172;6.682;2023-02-15T16:49:17;25.52;;;11.98;;
71610;SDS011;59459;51.172;6.682;2023-02-15T16:51:43;26.20;;;11.73;;
71610;SDS011;59459;51.172;6.682;2023-02-15T16:54:14;24.15;;;12.50;;
71610;SDS011;59459;51.172;6.682;2023-02-15T16:56:41;25.50;;;10.70;;
71610;SDS011;59459;51.172;6.682;2023-02-15T16:59:14;23.38;;;11.45;;
71610;SDS011;59459;51.172;6.682;2023-02-15T17:01:42;25.08;;;11.45;;
71610;SDS011;59459;51.172;6.682;2023-02-15T17:09:23;38.70;;;17.00;;
71610;SDS011;59459;51.172;6.682;2023-02-15T17:11:50;37.42;;;15.48;;
71610;SDS011;59459;51.172;6.682;2023-02-15T17:14:21;27.93;;;13.07;;
71610;SDS011;59459;51.172;6.682;2023-02-15T17:16:58;24.17;;;11.75;;